Etusivu
METAR-TAF:

METAR-TAF

Lentoasemat :

Ushuaia, Argentiina

Leveyspiiri: 54-48S, Pituuspiiri: 068-19W, korkeus merenpinnasta: 16 m

Tämänhetkinen sää

Tämä raportti tehtiin 11 minuuttia sitten, kello 05.00 UTC
Tuuli 3 kn etelästä
Lämpötila 4°C
Kosteus 87%
Ilmanpaine 992 hPa
Näkyvyys 10 km tai enemmän
Hajanaisia pilviä 3500 ft:n korkeudessa

METAR: SAWH 270500Z 18003KT 9999 SCT035 04/02 Q0992

Aika: 02:11 (05:11 UTC)

Sääennuste

Tämä raportti tehtiin 6 tuntia ja 11 minuuttia sitten, kello 23.00 UTC
Ennuste voimassa 27. päivästä klo 00 UTC - 27. päivään klo 24 UTC
Tuuli 15 kn lännestä
Näkyvyys 10 km tai enemmän
Muutamia pilviä 2000 ft:n korkeudessa
Hajanaisia pilviä 3000 ft:n korkeudessa
sadekuuroja näköpiirissä
Tulossa
27. päivästä klo 06 UTC - 27. päivään klo 09 UTC
Tuuli 18 kn lounaasta

TAF: SAWH 262300Z 2700/2724 27015KT 9999 VCSH FEW020 SCT030 TX08/2719Z TN03/2712Z BECMG 2706/2709 23018KT

Säähavainnot ja -ennusteet yli 4000 lentoasemalta (METAR- ja TAF-raportit).

Käytössä olevat sääasemat on merkitty karttaan keltaisilla ja punaisilla pisteillä.

Aseta hiiri pisteen päälle nähdäksesi sääaseman nimen.

Klikkaa sitten nähdäksesi säähavainnot ja -ennusteet.

Kartan vaihtaminen: klikkaa mustalla rastilla varustettuja vihreitä pisteitä, niin voit zoomata sisään; viivalla varustettua vihreää pistettä, niin voit zoomata ulos tai vihreitä nuolia, niin pääset viereisille kartoille.


METAR-TAF: